sensor_id;sensor_type;location;lat;lon;timestamp;P1;durP1;ratioP1;P2;durP2;ratioP2
30723;SDS011;17473;52.286;20.930;2022-09-13T00:01:33;11.95;;;8.80;;
30723;SDS011;17473;52.286;20.930;2022-09-13T00:04:00;11.23;;;7.93;;
30723;SDS011;17473;52.286;20.930;2022-09-13T00:06:27;16.70;;;8.02;;
30723;SDS011;17473;52.286;20.930;2022-09-13T00:08:54;14.73;;;8.10;;
30723;SDS011;17473;52.286;20.930;2022-09-13T00:11:23;13.70;;;7.88;;
30723;SDS011;17473;52.286;20.930;2022-09-13T00:13:53;15.60;;;7.57;;
30723;SDS011;17473;52.286;20.930;2022-09-13T00:16:22;13.95;;;8.23;;
30723;SDS011;17473;52.286;20.930;2022-09-13T00:18:53;12.20;;;8.33;;
30723;SDS011;17473;52.286;20.930;2022-09-13T00:21:21;13.97;;;8.47;;
30723;SDS011;17473;52.286;20.930;2022-09-13T00:23:50;13.73;;;9.13;;
30723;SDS011;17473;52.286;20.930;2022-09-13T00:26:20;14.97;;;9.37;;
30723;SDS011;17473;52.286;20.930;2022-09-13T00:28:53;16.43;;;9.23;;
30723;SDS011;17473;52.286;20.930;2022-09-13T00:31:23;14.27;;;9.53;;
30723;SDS011;17473;52.286;20.930;2022-09-13T00:33:53;18.63;;;9.50;;
30723;SDS011;17473;52.286;20.930;2022-09-13T00:36:21;14.77;;;9.87;;
30723;SDS011;17473;52.286;20.930;2022-09-13T00:38:48;17.00;;;8.73;;
30723;SDS011;17473;52.286;20.930;2022-09-13T00:41:16;17.17;;;10.33;;
30723;SDS011;17473;52.286;20.930;2022-09-13T00:43:55;14.73;;;9.67;;
30723;SDS011;17473;52.286;20.930;2022-09-13T00:46:41;14.33;;;9.37;;
30723;SDS011;17473;52.286;20.930;2022-09-13T00:49:27;13.27;;;9.00;;
30723;SDS011;17473;52.286;20.930;2022-09-13T00:52:03;14.13;;;9.43;;
30723;SDS011;17473;52.286;20.930;2022-09-13T00:54:38;13.77;;;8.33;;
30723;SDS011;17473;52.286;20.930;2022-09-13T00:57:11;18.13;;;9.90;;
30723;SDS011;17473;52.286;20.930;2022-09-13T00:59:44;11.07;;;8.27;;
30723;SDS011;17473;52.286;20.930;2022-09-13T01:02:39;18.23;;;9.33;;
30723;SDS011;17473;52.286;20.930;2022-09-13T01:05:14;11.43;;;8.43;;
30723;SDS011;17473;52.286;20.930;2022-09-13T01:07:45;12.33;;;8.23;;
30723;SDS011;17473;52.286;20.930;2022-09-13T01:10:12;13.57;;;8.93;;
30723;SDS011;17473;52.286;20.930;2022-09-13T01:12:42;12.87;;;9.80;;
30723;SDS011;17473;52.286;20.930;2022-09-13T01:15:30;12.80;;;8.23;;
30723;SDS011;17473;52.286;20.930;2022-09-13T01:17:57;9.33;;;8.00;;
30723;SDS011;17473;52.286;20.930;2022-09-13T01:20:26;14.73;;;8.33;;
30723;SDS011;17473;52.286;20.930;2022-09-13T01:23:37;12.80;;;8.53;;
30723;SDS011;17473;52.286;20.930;2022-09-13T01:32:53;13.98;;;8.77;;
30723;SDS011;17473;52.286;20.930;2022-09-13T01:41:40;16.43;;;8.93;;
30723;SDS011;17473;52.286;20.930;2022-09-13T01:47:23;11.37;;;8.10;;
30723;SDS011;17473;52.286;20.930;2022-09-13T01:50:16;13.67;;;8.77;;
30723;SDS011;17473;52.286;20.930;2022-09-13T01:52:53;12.18;;;7.70;;
30723;SDS011;17473;52.286;20.930;2022-09-13T01:55:54;10.23;;;7.50;;
30723;SDS011;17473;52.286;20.930;2022-09-13T01:58:45;10.47;;;8.07;;
30723;SDS011;17473;52.286;20.930;2022-09-13T02:01:27;10.30;;;8.50;;
30723;SDS011;17473;52.286;20.930;2022-09-13T02:04:04;10.53;;;8.23;;
30723;SDS011;17473;52.286;20.930;2022-09-13T02:06:46;11.67;;;8.50;;
30723;SDS011;17473;52.286;20.930;2022-09-13T02:09:23;10.23;;;8.20;;
30723;SDS011;17473;52.286;20.930;2022-09-13T02:11:55;10.68;;;8.25;;
30723;SDS011;17473;52.286;20.930;2022-09-13T02:14:38;11.53;;;8.70;;
30723;SDS011;17473;52.286;20.930;2022-09-13T02:17:13;10.03;;;8.30;;
30723;SDS011;17473;52.286;20.930;2022-09-13T02:22:31;11.53;;;8.40;;
30723;SDS011;17473;52.286;20.930;2022-09-13T02:25:06;10.53;;;7.97;;
30723;SDS011;17473;52.286;20.930;2022-09-13T02:27:40;10.60;;;8.67;;
30723;SDS011;17473;52.286;20.930;2022-09-13T02:30:13;10.37;;;7.17;;
30723;SDS011;17473;52.286;20.930;2022-09-13T02:32:42;11.83;;;8.23;;
30723;SDS011;17473;52.286;20.930;2022-09-13T02:35:36;9.00;;;7.97;;
30723;SDS011;17473;52.286;20.930;2022-09-13T02:38:50;10.57;;;8.30;;
30723;SDS011;17473;52.286;20.930;2022-09-13T02:41:39;11.60;;;7.77;;
30723;SDS011;17473;52.286;20.930;2022-09-13T02:44:54;14.07;;;8.43;;
30723;SDS011;17473;52.286;20.930;2022-09-13T02:53:37;11.60;;;7.50;;
30723;SDS011;17473;52.286;20.930;2022-09-13T02:56:21;9.57;;;7.77;;
30723;SDS011;17473;52.286;20.930;2022-09-13T03:01:44;12.33;;;8.17;;
30723;SDS011;17473;52.286;20.930;2022-09-13T03:04:17;16.93;;;8.87;;
30723;SDS011;17473;52.286;20.930;2022-09-13T03:06:44;10.30;;;7.97;;
30723;SDS011;17473;52.286;20.930;2022-09-13T03:09:11;13.10;;;8.97;;
30723;SDS011;17473;52.286;20.930;2022-09-13T03:14:31;11.17;;;8.73;;
30723;SDS011;17473;52.286;20.930;2022-09-13T03:20:52;10.87;;;8.10;;
30723;SDS011;17473;52.286;20.930;2022-09-13T03:26:43;13.33;;;8.77;;
30723;SDS011;17473;52.286;20.930;2022-09-13T03:33:15;10.73;;;8.73;;
30723;SDS011;17473;52.286;20.930;2022-09-13T03:38:26;11.07;;;8.40;;
30723;SDS011;17473;52.286;20.930;2022-09-13T03:41:13;14.17;;;8.57;;
30723;SDS011;17473;52.286;20.930;2022-09-13T03:43:47;10.70;;;8.03;;
30723;SDS011;17473;52.286;20.930;2022-09-13T03:46:26;11.80;;;8.57;;
30723;SDS011;17473;52.286;20.930;2022-09-13T03:49:01;11.90;;;9.27;;
30723;SDS011;17473;52.286;20.930;2022-09-13T03:51:34;13.40;;;9.30;;
30723;SDS011;17473;52.286;20.930;2022-09-13T03:54:03;11.47;;;9.13;;
30723;SDS011;17473;52.286;20.930;2022-09-13T03:56:34;14.97;;;9.27;;
30723;SDS011;17473;52.286;20.930;2022-09-13T03:59:01;11.47;;;8.10;;
30723;SDS011;17473;52.286;20.930;2022-09-13T04:01:28;13.30;;;8.47;;
30723;SDS011;17473;52.286;20.930;2022-09-13T04:03:56;15.37;;;8.73;;
30723;SDS011;17473;52.286;20.930;2022-09-13T04:06:24;14.03;;;8.77;;
30723;SDS011;17473;52.286;20.930;2022-09-13T04:08:51;14.67;;;8.80;;
30723;SDS011;17473;52.286;20.930;2022-09-13T04:11:18;15.30;;;8.07;;
30723;SDS011;17473;52.286;20.930;2022-09-13T04:13:46;11.27;;;7.53;;
30723;SDS011;17473;52.286;20.930;2022-09-13T04:16:13;11.13;;;7.97;;
30723;SDS011;17473;52.286;20.930;2022-09-13T04:18:40;12.30;;;8.20;;
30723;SDS011;17473;52.286;20.930;2022-09-13T04:21:07;12.53;;;8.10;;
30723;SDS011;17473;52.286;20.930;2022-09-13T04:23:34;9.90;;;7.63;;
30723;SDS011;17473;52.286;20.930;2022-09-13T04:26:03;10.80;;;8.10;;
30723;SDS011;17473;52.286;20.930;2022-09-13T04:28:31;11.83;;;7.40;;
30723;SDS011;17473;52.286;20.930;2022-09-13T04:30:58;9.47;;;7.43;;
30723;SDS011;17473;52.286;20.930;2022-09-13T04:33:25;9.40;;;7.30;;
30723;SDS011;17473;52.286;20.930;2022-09-13T04:35:58;11.13;;;7.30;;
30723;SDS011;17473;52.286;20.930;2022-09-13T04:38:25;10.90;;;7.23;;
30723;SDS011;17473;52.286;20.930;2022-09-13T04:40:53;12.02;;;7.40;;
30723;SDS011;17473;52.286;20.930;2022-09-13T04:43:21;9.93;;;6.55;;
30723;SDS011;17473;52.286;20.930;2022-09-13T04:45:49;9.88;;;6.40;;
30723;SDS011;17473;52.286;20.930;2022-09-13T04:48:17;12.23;;;7.78;;
30723;SDS011;17473;52.286;20.930;2022-09-13T04:50:44;16.65;;;8.50;;
30723;SDS011;17473;52.286;20.930;2022-09-13T04:53:11;11.63;;;8.10;;
30723;SDS011;17473;52.286;20.930;2022-09-13T04:55:38;10.63;;;6.60;;
30723;SDS011;17473;52.286;20.930;2022-09-13T04:58:05;8.77;;;6.28;;
30723;SDS011;17473;52.286;20.930;2022-09-13T05:00:32;11.57;;;6.97;;
30723;SDS011;17473;52.286;20.930;2022-09-13T05:02:59;11.40;;;6.47;;
30723;SDS011;17473;52.286;20.930;2022-09-13T05:05:26;10.73;;;7.57;;
30723;SDS011;17473;52.286;20.930;2022-09-13T05:07:54;12.70;;;6.80;;
30723;SDS011;17473;52.286;20.930;2022-09-13T05:10:21;10.73;;;6.68;;
30723;SDS011;17473;52.286;20.930;2022-09-13T05:12:49;12.00;;;6.35;;
30723;SDS011;17473;52.286;20.930;2022-09-13T05:15:15;12.73;;;6.68;;
30723;SDS011;17473;52.286;20.930;2022-09-13T05:17:43;10.32;;;6.68;;
30723;SDS011;17473;52.286;20.930;2022-09-13T05:20:10;10.45;;;6.32;;
30723;SDS011;17473;52.286;20.930;2022-09-13T05:22:37;9.13;;;6.60;;
30723;SDS011;17473;52.286;20.930;2022-09-13T05:25:04;8.05;;;6.00;;
30723;SDS011;17473;52.286;20.930;2022-09-13T05:27:31;10.75;;;6.53;;
30723;SDS011;17473;52.286;20.930;2022-09-13T05:29:58;10.57;;;5.93;;
30723;SDS011;17473;52.286;20.930;2022-09-13T05:32:29;10.63;;;6.63;;
30723;SDS011;17473;52.286;20.930;2022-09-13T05:34:57;10.73;;;6.70;;
30723;SDS011;17473;52.286;20.930;2022-09-13T05:37:24;12.82;;;6.90;;
30723;SDS011;17473;52.286;20.930;2022-09-13T05:39:51;12.15;;;7.13;;
30723;SDS011;17473;52.286;20.930;2022-09-13T05:42:38;12.77;;;6.60;;
30723;SDS011;17473;52.286;20.930;2022-09-13T05:45:05;9.50;;;6.30;;
30723;SDS011;17473;52.286;20.930;2022-09-13T05:47:33;8.50;;;6.07;;
30723;SDS011;17473;52.286;20.930;2022-09-13T05:50:00;8.15;;;6.60;;
30723;SDS011;17473;52.286;20.930;2022-09-13T05:52:37;12.77;;;7.15;;
30723;SDS011;17473;52.286;20.930;2022-09-13T05:55:04;10.23;;;7.22;;
30723;SDS011;17473;52.286;20.930;2022-09-13T05:57:31;14.40;;;6.55;;
30723;SDS011;17473;52.286;20.930;2022-09-13T05:59:58;12.50;;;7.28;;
30723;SDS011;17473;52.286;20.930;2022-09-13T06:02:25;9.80;;;6.57;;
30723;SDS011;17473;52.286;20.930;2022-09-13T06:04:51;11.98;;;7.25;;
30723;SDS011;17473;52.286;20.930;2022-09-13T06:07:18;9.13;;;7.38;;
30723;SDS011;17473;52.286;20.930;2022-09-13T06:09:45;15.70;;;8.13;;
30723;SDS011;17473;52.286;20.930;2022-09-13T06:12:12;12.93;;;7.20;;
30723;SDS011;17473;52.286;20.930;2022-09-13T06:14:39;12.25;;;6.60;;
30723;SDS011;17473;52.286;20.930;2022-09-13T06:17:06;14.02;;;8.45;;
30723;SDS011;17473;52.286;20.930;2022-09-13T06:19:33;11.00;;;7.60;;
30723;SDS011;17473;52.286;20.930;2022-09-13T06:22:00;11.68;;;7.25;;
30723;SDS011;17473;52.286;20.930;2022-09-13T06:24:27;16.23;;;7.57;;
30723;SDS011;17473;52.286;20.930;2022-09-13T06:26:54;14.20;;;7.63;;
30723;SDS011;17473;52.286;20.930;2022-09-13T06:29:21;18.70;;;8.25;;
30723;SDS011;17473;52.286;20.930;2022-09-13T06:31:48;11.80;;;7.85;;
30723;SDS011;17473;52.286;20.930;2022-09-13T06:34:15;11.40;;;7.72;;
30723;SDS011;17473;52.286;20.930;2022-09-13T06:36:43;9.82;;;6.90;;
30723;SDS011;17473;52.286;20.930;2022-09-13T06:39:10;9.73;;;6.50;;
30723;SDS011;17473;52.286;20.930;2022-09-13T06:41:37;10.13;;;7.55;;
30723;SDS011;17473;52.286;20.930;2022-09-13T06:44:05;16.92;;;7.78;;
30723;SDS011;17473;52.286;20.930;2022-09-13T06:46:32;11.82;;;7.20;;
30723;SDS011;17473;52.286;20.930;2022-09-13T06:49:02;11.05;;;7.68;;
30723;SDS011;17473;52.286;20.930;2022-09-13T06:51:31;12.32;;;7.63;;
30723;SDS011;17473;52.286;20.930;2022-09-13T06:54:00;11.95;;;7.68;;
30723;SDS011;17473;52.286;20.930;2022-09-13T06:56:30;10.68;;;7.38;;
30723;SDS011;17473;52.286;20.930;2022-09-13T06:59:00;12.70;;;7.90;;
30723;SDS011;17473;52.286;20.930;2022-09-13T07:01:31;10.35;;;6.97;;
30723;SDS011;17473;52.286;20.930;2022-09-13T07:04:02;14.30;;;7.72;;
30723;SDS011;17473;52.286;20.930;2022-09-13T07:06:51;13.55;;;6.90;;
30723;SDS011;17473;52.286;20.930;2022-09-13T07:09:18;12.30;;;6.97;;
30723;SDS011;17473;52.286;20.930;2022-09-13T07:11:51;17.83;;;7.25;;
30723;SDS011;17473;52.286;20.930;2022-09-13T07:14:24;15.13;;;8.05;;
30723;SDS011;17473;52.286;20.930;2022-09-13T07:16:54;12.85;;;6.43;;
30723;SDS011;17473;52.286;20.930;2022-09-13T07:19:22;14.82;;;7.30;;
30723;SDS011;17473;52.286;20.930;2022-09-13T07:21:54;13.52;;;6.10;;
30723;SDS011;17473;52.286;20.930;2022-09-13T07:24:22;11.27;;;6.88;;
30723;SDS011;17473;52.286;20.930;2022-09-13T07:26:50;11.52;;;7.32;;
30723;SDS011;17473;52.286;20.930;2022-09-13T07:29:18;17.85;;;6.72;;
30723;SDS011;17473;52.286;20.930;2022-09-13T07:31:51;16.73;;;7.05;;
30723;SDS011;17473;52.286;20.930;2022-09-13T07:34:20;8.70;;;6.65;;
30723;SDS011;17473;52.286;20.930;2022-09-13T07:36:49;11.98;;;6.30;;
30723;SDS011;17473;52.286;20.930;2022-09-13T07:39:17;12.98;;;7.30;;
30723;SDS011;17473;52.286;20.930;2022-09-13T07:41:48;16.33;;;6.28;;
30723;SDS011;17473;52.286;20.930;2022-09-13T07:44:16;16.83;;;6.25;;
30723;SDS011;17473;52.286;20.930;2022-09-13T07:46:44;13.15;;;5.93;;
30723;SDS011;17473;52.286;20.930;2022-09-13T07:49:11;9.55;;;5.78;;
30723;SDS011;17473;52.286;20.930;2022-09-13T07:51:42;21.70;;;6.15;;
30723;SDS011;17473;52.286;20.930;2022-09-13T07:54:13;10.05;;;5.80;;
30723;SDS011;17473;52.286;20.930;2022-09-13T07:56:43;13.20;;;4.80;;
30723;SDS011;17473;52.286;20.930;2022-09-13T07:59:12;14.35;;;5.43;;
30723;SDS011;17473;52.286;20.930;2022-09-13T08:01:42;8.10;;;4.35;;
30723;SDS011;17473;52.286;20.930;2022-09-13T08:04:12;9.15;;;3.95;;
30723;SDS011;17473;52.286;20.930;2022-09-13T08:06:43;11.98;;;5.22;;
30723;SDS011;17473;52.286;20.930;2022-09-13T08:09:11;7.28;;;3.30;;
30723;SDS011;17473;52.286;20.930;2022-09-13T08:11:40;3.00;;;2.47;;
30723;SDS011;17473;52.286;20.930;2022-09-13T08:14:20;5.57;;;3.10;;
30723;SDS011;17473;52.286;20.930;2022-09-13T08:16:48;6.93;;;2.97;;
30723;SDS011;17473;52.286;20.930;2022-09-13T08:19:16;6.65;;;2.67;;
30723;SDS011;17473;52.286;20.930;2022-09-13T08:21:44;8.45;;;3.28;;
30723;SDS011;17473;52.286;20.930;2022-09-13T08:24:13;5.03;;;2.88;;
30723;SDS011;17473;52.286;20.930;2022-09-13T08:26:43;3.33;;;2.72;;
30723;SDS011;17473;52.286;20.930;2022-09-13T08:29:11;8.32;;;2.75;;
30723;SDS011;17473;52.286;20.930;2022-09-13T08:31:39;5.50;;;2.85;;
30723;SDS011;17473;52.286;20.930;2022-09-13T08:34:11;4.25;;;2.70;;
30723;SDS011;17473;52.286;20.930;2022-09-13T08:36:40;5.43;;;2.42;;
30723;SDS011;17473;52.286;20.930;2022-09-13T08:39:08;5.30;;;2.42;;
30723;SDS011;17473;52.286;20.930;2022-09-13T08:44:12;4.90;;;2.10;;
30723;SDS011;17473;52.286;20.930;2022-09-13T08:46:56;6.35;;;2.40;;
30723;SDS011;17473;52.286;20.930;2022-09-13T08:50:06;3.10;;;2.03;;
30723;SDS011;17473;52.286;20.930;2022-09-13T08:52:47;3.28;;;1.95;;
30723;SDS011;17473;52.286;20.930;2022-09-13T08:58:38;6.45;;;2.00;;
30723;SDS011;17473;52.286;20.930;2022-09-13T09:04:28;6.28;;;1.77;;
30723;SDS011;17473;52.286;20.930;2022-09-13T09:07:14;4.68;;;1.90;;
30723;SDS011;17473;52.286;20.930;2022-09-13T09:09:50;9.98;;;2.58;;
30723;SDS011;17473;52.286;20.930;2022-09-13T09:12:37;9.40;;;2.00;;
30723;SDS011;17473;52.286;20.930;2022-09-13T09:15:17;8.40;;;2.35;;
30723;SDS011;17473;52.286;20.930;2022-09-13T09:20:35;7.32;;;2.30;;
30723;SDS011;17473;52.286;20.930;2022-09-13T09:25:56;3.63;;;2.00;;
30723;SDS011;17473;52.286;20.930;2022-09-13T09:28:42;5.45;;;1.42;;
30723;SDS011;17473;52.286;20.930;2022-09-13T09:31:30;4.38;;;1.65;;
30723;SDS011;17473;52.286;20.930;2022-09-13T09:37:29;3.83;;;1.88;;
30723;SDS011;17473;52.286;20.930;2022-09-13T09:39:57;2.70;;;1.52;;
30723;SDS011;17473;52.286;20.930;2022-09-13T09:42:44;7.40;;;2.67;;
30723;SDS011;17473;52.286;20.930;2022-09-13T09:47:59;5.15;;;2.60;;
30723;SDS011;17473;52.286;20.930;2022-09-13T09:50:35;2.78;;;1.98;;
30723;SDS011;17473;52.286;20.930;2022-09-13T09:53:17;5.25;;;1.67;;
30723;SDS011;17473;52.286;20.930;2022-09-13T09:58:57;21.73;;;10.57;;
30723;SDS011;17473;52.286;20.930;2022-09-13T10:01:25;13.52;;;7.20;;
30723;SDS011;17473;52.286;20.930;2022-09-13T10:04:04;4.63;;;2.45;;
30723;SDS011;17473;52.286;20.930;2022-09-13T10:06:38;5.22;;;2.17;;
30723;SDS011;17473;52.286;20.930;2022-09-13T10:11:47;5.85;;;2.15;;
30723;SDS011;17473;52.286;20.930;2022-09-13T10:17:04;7.70;;;2.15;;
30723;SDS011;17473;52.286;20.930;2022-09-13T10:19:31;5.68;;;2.15;;
30723;SDS011;17473;52.286;20.930;2022-09-13T10:21:59;4.10;;;2.00;;
30723;SDS011;17473;52.286;20.930;2022-09-13T10:24:31;4.38;;;2.45;;
30723;SDS011;17473;52.286;20.930;2022-09-13T10:26:58;7.88;;;2.10;;
30723;SDS011;17473;52.286;20.930;2022-09-13T10:29:26;4.55;;;1.70;;
30723;SDS011;17473;52.286;20.930;2022-09-13T10:31:54;8.00;;;2.20;;
30723;SDS011;17473;52.286;20.930;2022-09-13T10:34:28;8.55;;;1.80;;
30723;SDS011;17473;52.286;20.930;2022-09-13T10:37:31;5.20;;;1.90;;
30723;SDS011;17473;52.286;20.930;2022-09-13T10:40:00;9.38;;;2.15;;
30723;SDS011;17473;52.286;20.930;2022-09-13T10:42:38;3.60;;;1.85;;
30723;SDS011;17473;52.286;20.930;2022-09-13T10:45:06;5.30;;;2.33;;
30723;SDS011;17473;52.286;20.930;2022-09-13T10:47:45;14.60;;;1.90;;
30723;SDS011;17473;52.286;20.930;2022-09-13T10:50:18;4.53;;;2.42;;
30723;SDS011;17473;52.286;20.930;2022-09-13T10:55:23;5.47;;;2.28;;
30723;SDS011;17473;52.286;20.930;2022-09-13T11:03:38;4.07;;;2.03;;
30723;SDS011;17473;52.286;20.930;2022-09-13T11:09:08;7.07;;;2.47;;
30723;SDS011;17473;52.286;20.930;2022-09-13T11:12:10;7.45;;;2.00;;
30723;SDS011;17473;52.286;20.930;2022-09-13T11:18:19;4.22;;;2.13;;
30723;SDS011;17473;52.286;20.930;2022-09-13T11:26:59;4.60;;;1.92;;
30723;SDS011;17473;52.286;20.930;2022-09-13T11:30:17;4.72;;;2.20;;
30723;SDS011;17473;52.286;20.930;2022-09-13T11:35:53;4.22;;;2.35;;
30723;SDS011;17473;52.286;20.930;2022-09-13T11:41:37;3.25;;;2.10;;
30723;SDS011;17473;52.286;20.930;2022-09-13T11:50:54;3.80;;;2.40;;
30723;SDS011;17473;52.286;20.930;2022-09-13T11:56:37;3.70;;;2.17;;
30723;SDS011;17473;52.286;20.930;2022-09-13T11:59:13;5.05;;;2.83;;
30723;SDS011;17473;52.286;20.930;2022-09-13T12:02:44;2.28;;;2.00;;
30723;SDS011;17473;52.286;20.930;2022-09-13T12:05:29;3.20;;;2.05;;
30723;SDS011;17473;52.286;20.930;2022-09-13T12:08:06;3.03;;;2.22;;
30723;SDS011;17473;52.286;20.930;2022-09-13T12:10:48;3.95;;;2.38;;
30723;SDS011;17473;52.286;20.930;2022-09-13T12:13:49;4.18;;;2.65;;
30723;SDS011;17473;52.286;20.930;2022-09-13T12:16:42;4.20;;;2.38;;
30723;SDS011;17473;52.286;20.930;2022-09-13T12:19:42;5.32;;;2.75;;
30723;SDS011;17473;52.286;20.930;2022-09-13T12:22:15;4.03;;;2.30;;
30723;SDS011;17473;52.286;20.930;2022-09-13T12:24:46;3.97;;;2.25;;
30723;SDS011;17473;52.286;20.930;2022-09-13T12:27:25;7.32;;;2.53;;
30723;SDS011;17473;52.286;20.930;2022-09-13T12:32:43;4.47;;;3.38;;
30723;SDS011;17473;52.286;20.930;2022-09-13T12:35:18;5.63;;;2.65;;
30723;SDS011;17473;52.286;20.930;2022-09-13T12:40:53;6.43;;;3.38;;
30723;SDS011;17473;52.286;20.930;2022-09-13T12:49:41;8.77;;;3.05;;
30723;SDS011;17473;52.286;20.930;2022-09-13T12:56:02;4.30;;;2.72;;
30723;SDS011;17473;52.286;20.930;2022-09-13T13:01:43;6.18;;;2.78;;
30723;SDS011;17473;52.286;20.930;2022-09-13T13:04:14;6.80;;;2.60;;
30723;SDS011;17473;52.286;20.930;2022-09-13T13:06:50;3.80;;;2.35;;
30723;SDS011;17473;52.286;20.930;2022-09-13T13:09:38;3.88;;;3.03;;
30723;SDS011;17473;52.286;20.930;2022-09-13T13:12:29;5.22;;;2.97;;
30723;SDS011;17473;52.286;20.930;2022-09-13T13:23:14;6.78;;;3.40;;
30723;SDS011;17473;52.286;20.930;2022-09-13T13:34:01;5.72;;;3.30;;
30723;SDS011;17473;52.286;20.930;2022-09-13T13:41:42;3.78;;;3.08;;
30723;SDS011;17473;52.286;20.930;2022-09-13T13:46:46;7.97;;;3.10;;
30723;SDS011;17473;52.286;20.930;2022-09-13T14:11:47;5.15;;;3.17;;
30723;SDS011;17473;52.286;20.930;2022-09-13T14:14:42;4.70;;;3.05;;
30723;SDS011;17473;52.286;20.930;2022-09-13T14:21:01;5.03;;;3.10;;
30723;SDS011;17473;52.286;20.930;2022-09-13T14:23:43;8.55;;;3.47;;
30723;SDS011;17473;52.286;20.930;2022-09-13T14:26:10;6.20;;;3.35;;
30723;SDS011;17473;52.286;20.930;2022-09-13T14:28:37;4.30;;;2.83;;
30723;SDS011;17473;52.286;20.930;2022-09-13T14:31:05;7.28;;;3.20;;
30723;SDS011;17473;52.286;20.930;2022-09-13T14:33:35;9.52;;;3.45;;
30723;SDS011;17473;52.286;20.930;2022-09-13T14:36:04;3.25;;;2.78;;
30723;SDS011;17473;52.286;20.930;2022-09-13T14:38:50;7.75;;;2.95;;
30723;SDS011;17473;52.286;20.930;2022-09-13T14:41:33;3.83;;;2.80;;
30723;SDS011;17473;52.286;20.930;2022-09-13T14:44:14;11.55;;;3.75;;
30723;SDS011;17473;52.286;20.930;2022-09-13T14:46:55;5.75;;;3.67;;
30723;SDS011;17473;52.286;20.930;2022-09-13T14:49:38;5.43;;;2.83;;
30723;SDS011;17473;52.286;20.930;2022-09-13T14:52:23;6.32;;;3.17;;
30723;SDS011;17473;52.286;20.930;2022-09-13T14:55:02;6.60;;;3.15;;
30723;SDS011;17473;52.286;20.930;2022-09-13T14:57:42;7.32;;;3.60;;
30723;SDS011;17473;52.286;20.930;2022-09-13T15:00:19;5.50;;;3.65;;
30723;SDS011;17473;52.286;20.930;2022-09-13T15:02:51;5.20;;;3.72;;
30723;SDS011;17473;52.286;20.930;2022-09-13T15:05:30;4.97;;;3.22;;
30723;SDS011;17473;52.286;20.930;2022-09-13T15:07:59;6.95;;;3.33;;
30723;SDS011;17473;52.286;20.930;2022-09-13T15:10:50;6.20;;;2.88;;
30723;SDS011;17473;52.286;20.930;2022-09-13T15:13:17;5.93;;;3.53;;
30723;SDS011;17473;52.286;20.930;2022-09-13T15:15:44;5.72;;;3.50;;
30723;SDS011;17473;52.286;20.930;2022-09-13T15:20:54;9.73;;;3.45;;
30723;SDS011;17473;52.286;20.930;2022-09-13T15:23:36;5.45;;;3.33;;
30723;SDS011;17473;52.286;20.930;2022-09-13T15:28:52;3.75;;;2.95;;
30723;SDS011;17473;52.286;20.930;2022-09-13T15:31:23;7.78;;;3.35;;
30723;SDS011;17473;52.286;20.930;2022-09-13T15:36:42;4.35;;;3.10;;
30723;SDS011;17473;52.286;20.930;2022-09-13T15:39:18;6.43;;;3.80;;
30723;SDS011;17473;52.286;20.930;2022-09-13T15:41:50;7.85;;;3.30;;
30723;SDS011;17473;52.286;20.930;2022-09-13T15:44:24;8.55;;;3.28;;
30723;SDS011;17473;52.286;20.930;2022-09-13T15:46:54;5.57;;;3.53;;
30723;SDS011;17473;52.286;20.930;2022-09-13T15:49:27;15.50;;;3.92;;
30723;SDS011;17473;52.286;20.930;2022-09-13T15:51:56;7.45;;;3.78;;
30723;SDS011;17473;52.286;20.930;2022-09-13T15:54:37;6.85;;;3.47;;
30723;SDS011;17473;52.286;20.930;2022-09-13T15:57:26;11.98;;;3.92;;
30723;SDS011;17473;52.286;20.930;2022-09-13T15:59:54;5.10;;;4.03;;
30723;SDS011;17473;52.286;20.930;2022-09-13T16:02:32;5.43;;;3.63;;
30723;SDS011;17473;52.286;20.930;2022-09-13T16:05:00;8.52;;;3.70;;
30723;SDS011;17473;52.286;20.930;2022-09-13T16:07:27;8.52;;;4.32;;
30723;SDS011;17473;52.286;20.930;2022-09-13T16:09:54;4.88;;;3.90;;
30723;SDS011;17473;52.286;20.930;2022-09-13T16:12:21;5.45;;;4.00;;
30723;SDS011;17473;52.286;20.930;2022-09-13T16:14:49;6.03;;;4.15;;
30723;SDS011;17473;52.286;20.930;2022-09-13T16:17:20;6.47;;;4.18;;
30723;SDS011;17473;52.286;20.930;2022-09-13T16:19:51;8.00;;;4.47;;
30723;SDS011;17473;52.286;20.930;2022-09-13T16:22:19;8.65;;;4.13;;
30723;SDS011;17473;52.286;20.930;2022-09-13T16:24:48;10.88;;;4.95;;
30723;SDS011;17473;52.286;20.930;2022-09-13T16:27:15;12.90;;;5.32;;
30723;SDS011;17473;52.286;20.930;2022-09-13T16:29:44;9.63;;;4.55;;
30723;SDS011;17473;52.286;20.930;2022-09-13T16:32:11;9.68;;;4.88;;
30723;SDS011;17473;52.286;20.930;2022-09-13T16:34:38;10.68;;;4.88;;
30723;SDS011;17473;52.286;20.930;2022-09-13T16:37:05;8.20;;;4.45;;
30723;SDS011;17473;52.286;20.930;2022-09-13T16:39:32;9.52;;;4.75;;
30723;SDS011;17473;52.286;20.930;2022-09-13T16:41:59;8.45;;;5.10;;
30723;SDS011;17473;52.286;20.930;2022-09-13T16:44:26;9.02;;;5.25;;
30723;SDS011;17473;52.286;20.930;2022-09-13T16:46:53;8.00;;;4.38;;
30723;SDS011;17473;52.286;20.930;2022-09-13T16:49:21;6.18;;;5.25;;
30723;SDS011;17473;52.286;20.930;2022-09-13T16:51:48;6.28;;;4.78;;
30723;SDS011;17473;52.286;20.930;2022-09-13T16:54:15;9.95;;;4.80;;
30723;SDS011;17473;52.286;20.930;2022-09-13T16:56:42;9.73;;;5.15;;
30723;SDS011;17473;52.286;20.930;2022-09-13T16:59:09;10.63;;;4.78;;
30723;SDS011;17473;52.286;20.930;2022-09-13T17:01:36;10.00;;;5.28;;
30723;SDS011;17473;52.286;20.930;2022-09-13T17:04:04;12.68;;;5.13;;
30723;SDS011;17473;52.286;20.930;2022-09-13T17:06:31;8.13;;;4.75;;
30723;SDS011;17473;52.286;20.930;2022-09-13T17:08:59;13.80;;;5.22;;
30723;SDS011;17473;52.286;20.930;2022-09-13T17:11:29;8.45;;;5.60;;
30723;SDS011;17473;52.286;20.930;2022-09-13T17:14:01;8.55;;;4.63;;
30723;SDS011;17473;52.286;20.930;2022-09-13T17:16:34;8.00;;;5.20;;
30723;SDS011;17473;52.286;20.930;2022-09-13T17:19:10;16.02;;;5.18;;
30723;SDS011;17473;52.286;20.930;2022-09-13T17:21:46;9.43;;;5.22;;
30723;SDS011;17473;52.286;20.930;2022-09-13T17:24:14;10.13;;;5.18;;
30723;SDS011;17473;52.286;20.930;2022-09-13T17:26:41;8.27;;;4.40;;
30723;SDS011;17473;52.286;20.930;2022-09-13T17:29:10;8.88;;;5.07;;
30723;SDS011;17473;52.286;20.930;2022-09-13T17:31:38;7.03;;;5.20;;
30723;SDS011;17473;52.286;20.930;2022-09-13T17:34:09;8.93;;;4.75;;
30723;SDS011;17473;52.286;20.930;2022-09-13T17:36:38;27.63;;;6.10;;
30723;SDS011;17473;52.286;20.930;2022-09-13T17:39:09;8.95;;;4.93;;
30723;SDS011;17473;52.286;20.930;2022-09-13T17:41:37;9.02;;;5.72;;
30723;SDS011;17473;52.286;20.930;2022-09-13T17:44:04;7.25;;;5.20;;
30723;SDS011;17473;52.286;20.930;2022-09-13T17:46:32;8.07;;;5.30;;
30723;SDS011;17473;52.286;20.930;2022-09-13T17:48:59;6.50;;;5.07;;
30723;SDS011;17473;52.286;20.930;2022-09-13T17:51:28;15.23;;;5.90;;
30723;SDS011;17473;52.286;20.930;2022-09-13T17:53:58;7.80;;;4.47;;
30723;SDS011;17473;52.286;20.930;2022-09-13T17:56:28;7.05;;;5.35;;
30723;SDS011;17473;52.286;20.930;2022-09-13T18:01:44;11.50;;;5.18;;
30723;SDS011;17473;52.286;20.930;2022-09-13T18:04:15;8.65;;;5.50;;
30723;SDS011;17473;52.286;20.930;2022-09-13T18:06:44;13.32;;;4.93;;
30723;SDS011;17473;52.286;20.930;2022-09-13T18:09:12;10.18;;;5.57;;
30723;SDS011;17473;52.286;20.930;2022-09-13T18:11:41;6.80;;;4.82;;
30723;SDS011;17473;52.286;20.930;2022-09-13T18:14:10;8.23;;;5.20;;